createdAt,value
2023-06-14T00:00:54.123Z,18.10
2023-06-14T00:03:26.069Z,18.20
2023-06-14T00:05:57.135Z,18.20
2023-06-14T00:08:28.297Z,18.20
2023-06-14T00:11:01.911Z,18.10
2023-06-14T00:13:33.016Z,18.10
2023-06-14T00:16:04.977Z,18.20
2023-06-14T00:18:35.845Z,18.20
2023-06-14T00:21:06.896Z,18.20
2023-06-14T00:23:38.108Z,18.20
2023-06-14T00:26:11.747Z,18.20
2023-06-14T00:28:42.844Z,18.20
2023-06-14T00:31:13.918Z,18.20
2023-06-14T00:33:44.887Z,18.20
2023-06-14T00:36:16.348Z,18.10
2023-06-14T00:38:47.433Z,18.10
2023-06-14T00:41:21.018Z,18.10
2023-06-14T00:43:52.250Z,18.10
2023-06-14T00:46:23.501Z,18.10
2023-06-14T00:48:54.991Z,18.00
2023-06-14T00:51:26.237Z,17.90
2023-06-14T00:53:57.293Z,17.90
2023-06-14T00:56:31.256Z,17.90
2023-06-14T00:59:02.584Z,18.20
2023-06-14T01:01:34.781Z,17.90
2023-06-14T01:04:06.403Z,17.80
2023-06-14T01:06:44.075Z,17.80
2023-06-14T01:09:25.077Z,17.80
2023-06-14T01:12:08.761Z,17.80
2023-06-14T01:14:41.481Z,17.80
2023-06-14T01:17:16.693Z,17.70
2023-06-14T01:19:48.537Z,17.60
2023-06-14T01:22:19.618Z,17.70
2023-06-14T01:24:56.340Z,17.70
2023-06-14T01:27:29.906Z,17.60
2023-06-14T01:30:03.418Z,17.60
2023-06-14T01:32:34.702Z,17.50
2023-06-14T01:35:05.798Z,17.50
2023-06-14T01:37:37.149Z,17.50
2023-06-14T01:40:13.658Z,17.50
2023-06-14T01:42:45.712Z,17.40
2023-06-14T01:45:16.800Z,17.70
2023-06-14T01:47:49.094Z,17.40
2023-06-14T01:50:20.353Z,17.30
2023-06-14T01:52:51.362Z,17.30
2023-06-14T01:55:25.894Z,17.30
2023-06-14T01:57:57.247Z,17.30
2023-06-14T02:00:28.434Z,17.30
2023-06-14T02:02:59.569Z,17.20
2023-06-14T02:05:31.498Z,17.10
2023-06-14T02:08:02.570Z,17.10
2023-06-14T02:10:37.061Z,17.10
2023-06-14T02:13:08.126Z,17.10
2023-06-14T02:15:39.220Z,17.00
2023-06-14T02:18:10.257Z,16.90
2023-06-14T02:20:41.337Z,16.90
2023-06-14T02:23:12.297Z,16.80
2023-06-14T02:25:46.245Z,16.90
2023-06-14T02:28:17.277Z,16.80
2023-06-14T02:30:48.260Z,16.80
2023-06-14T02:33:23.148Z,16.80
2023-06-14T02:35:54.202Z,16.80
2023-06-14T02:38:25.132Z,16.80
2023-06-14T02:40:58.612Z,16.90
2023-06-14T02:43:29.548Z,16.90
2023-06-14T02:46:00.597Z,16.80
2023-06-14T02:48:32.003Z,16.80
2023-06-14T02:51:03.008Z,16.60
2023-06-14T02:53:33.905Z,16.70
2023-06-14T02:56:07.903Z,16.60
2023-06-14T02:58:40.708Z,16.60
2023-06-14T03:01:14.084Z,16.60
2023-06-14T03:03:45.287Z,16.70
2023-06-14T03:06:17.865Z,16.50
2023-06-14T03:08:50.180Z,16.60
2023-06-14T03:11:23.957Z,16.50
2023-06-14T03:13:56.498Z,16.40
2023-06-14T03:16:30.205Z,16.40
2023-06-14T03:19:01.198Z,16.30
2023-06-14T03:21:32.251Z,16.40
2023-06-14T03:24:04.869Z,16.20
2023-06-14T03:26:39.120Z,16.30
2023-06-14T03:29:10.004Z,16.30
2023-06-14T03:31:59.797Z,16.30
2023-06-14T03:34:31.622Z,16.20
2023-06-14T03:37:02.556Z,16.20
2023-06-14T03:39:33.489Z,16.00
2023-06-14T03:42:07.966Z,16.10
2023-06-14T03:44:39.620Z,16.10
2023-06-14T03:47:11.273Z,16.10
2023-06-14T03:49:42.541Z,16.50
2023-06-14T03:52:15.274Z,16.30
2023-06-14T03:57:24.320Z,16.20
2023-06-14T03:59:58.299Z,16.10
2023-06-14T04:02:30.084Z,16.10
2023-06-14T04:05:02.344Z,16.20
2023-06-14T04:07:33.529Z,16.30
2023-06-14T04:10:04.436Z,16.30
2023-06-14T04:12:38.068Z,16.40
2023-06-14T04:15:20.478Z,16.50
2023-06-14T04:17:53.042Z,16.40
2023-06-14T04:20:25.285Z,16.40
2023-06-14T04:22:58.479Z,16.50
2023-06-14T04:25:31.889Z,16.60
2023-06-14T04:28:05.385Z,16.80
2023-06-14T04:30:37.250Z,17.10
2023-06-14T04:33:08.469Z,17.50
2023-06-14T04:35:41.953Z,18.10
2023-06-14T04:38:12.989Z,18.80
2023-06-14T04:40:45.410Z,19.40
2023-06-14T04:43:19.744Z,20.00
2023-06-14T04:45:51.116Z,20.60
2023-06-14T04:48:22.595Z,21.10
2023-06-14T04:50:55.131Z,21.70
2023-06-14T04:53:30.405Z,22.20
2023-06-14T04:56:02.041Z,22.30
2023-06-14T04:58:35.709Z,22.40
2023-06-14T05:01:06.831Z,22.70
2023-06-14T05:03:37.956Z,22.90
2023-06-14T05:06:09.084Z,22.50
2023-06-14T05:08:40.172Z,22.20
2023-06-14T05:11:11.364Z,22.40
2023-06-14T05:13:45.843Z,22.80
2023-06-14T05:16:20.324Z,22.70
2023-06-14T05:18:52.155Z,23.20
2023-06-14T05:21:23.099Z,23.00
2023-06-14T05:23:55.263Z,22.70
2023-06-14T05:26:29.796Z,23.00
2023-06-14T05:29:04.732Z,23.10
2023-06-14T05:31:35.992Z,23.20
2023-06-14T05:34:07.095Z,24.10
2023-06-14T05:36:38.415Z,24.60
2023-06-14T05:39:09.685Z,25.00
2023-06-14T05:41:40.650Z,24.40
2023-06-14T05:44:16.476Z,24.40
2023-06-14T05:46:47.857Z,24.50
2023-06-14T05:49:18.939Z,25.30
2023-06-14T05:51:49.897Z,25.30
2023-06-14T05:54:20.888Z,25.80
2023-06-14T05:56:51.781Z,25.00
2023-06-14T05:59:25.337Z,24.90
2023-06-14T06:01:56.284Z,25.50
2023-06-14T06:04:27.634Z,26.00
2023-06-14T06:06:58.582Z,26.90
2023-06-14T06:09:29.527Z,27.30
2023-06-14T06:12:00.469Z,26.60
2023-06-14T06:14:33.990Z,26.00
2023-06-14T06:17:05.006Z,26.20
2023-06-14T06:19:35.978Z,26.10
2023-06-14T06:22:09.250Z,26.20
2023-06-14T06:24:40.305Z,26.10
2023-06-14T06:27:13.691Z,25.50
2023-06-14T06:29:47.472Z,25.10
2023-06-14T06:32:18.871Z,24.70
2023-06-14T06:34:50.513Z,23.40
2023-06-14T06:37:21.629Z,22.60
2023-06-14T06:39:52.593Z,22.30
2023-06-14T06:42:23.536Z,22.00
2023-06-14T06:44:57.212Z,22.50
2023-06-14T06:47:28.385Z,23.50
2023-06-14T06:49:59.536Z,23.40
2023-06-14T06:52:30.548Z,23.20
2023-06-14T06:55:01.844Z,23.90
2023-06-14T06:57:33.182Z,25.00
2023-06-14T07:00:09.179Z,25.30
2023-06-14T07:02:40.742Z,25.10
2023-06-14T07:05:12.100Z,24.30
2023-06-14T07:07:43.100Z,24.80
2023-06-14T07:10:14.111Z,24.90
2023-06-14T07:12:45.077Z,25.00
2023-06-14T07:15:21.049Z,24.50
2023-06-14T07:17:52.042Z,23.70
2023-06-14T07:20:23.897Z,23.30
2023-06-14T07:22:55.094Z,23.10
2023-06-14T07:25:26.508Z,23.20
2023-06-14T07:27:57.660Z,23.10
2023-06-14T07:30:31.531Z,22.70
2023-06-14T07:33:02.572Z,22.40
2023-06-14T07:35:33.673Z,22.00
2023-06-14T07:38:04.626Z,22.10
2023-06-14T07:40:35.622Z,21.80
2023-06-14T07:43:06.963Z,22.00
2023-06-14T07:45:47.947Z,22.20
2023-06-14T07:48:27.666Z,21.50
2023-06-14T07:51:00.325Z,21.30
2023-06-14T07:53:32.053Z,21.30
2023-06-14T07:56:03.911Z,21.50
2023-06-14T07:58:35.010Z,21.80
2023-06-14T08:01:09.248Z,22.00
2023-06-14T08:03:40.530Z,21.80
2023-06-14T08:06:11.787Z,22.00
2023-06-14T08:08:42.930Z,21.80
2023-06-14T08:11:13.824Z,21.90
2023-06-14T08:13:44.758Z,22.10
2023-06-14T08:16:18.362Z,22.00
2023-06-14T08:18:49.367Z,21.60
2023-06-14T08:21:20.591Z,21.60
2023-06-14T08:23:54.951Z,21.80
2023-06-14T08:26:30.275Z,22.20
2023-06-14T08:29:01.357Z,22.30
2023-06-14T08:31:35.752Z,22.40
2023-06-14T08:34:07.492Z,22.40
2023-06-14T08:36:39.502Z,22.10
2023-06-14T08:39:10.902Z,22.00
2023-06-14T08:41:42.136Z,22.20
2023-06-14T08:44:13.213Z,21.90
2023-06-14T08:46:47.294Z,22.10
2023-06-14T08:49:20.904Z,21.80
2023-06-14T08:51:58.702Z,21.90
2023-06-14T08:54:31.434Z,21.80
2023-06-14T08:57:02.753Z,21.70
2023-06-14T08:59:40.263Z,21.90
2023-06-14T09:02:15.815Z,21.80
2023-06-14T09:04:46.813Z,22.20
2023-06-14T09:07:18.372Z,22.30
2023-06-14T09:10:03.057Z,22.60
2023-06-14T09:12:37.536Z,22.60
2023-06-14T09:15:10.384Z,22.80
2023-06-14T09:17:44.644Z,22.50
2023-06-14T09:20:20.409Z,22.40
2023-06-14T09:22:52.069Z,22.60
2023-06-14T09:25:38.014Z,22.10
2023-06-14T09:28:11.755Z,22.30
2023-06-14T09:30:42.876Z,22.40
2023-06-14T09:33:21.693Z,22.80
2023-06-14T09:35:55.886Z,22.80
2023-06-14T09:38:28.727Z,22.50
2023-06-14T09:41:01.666Z,22.50
2023-06-14T09:43:35.152Z,22.50
2023-06-14T09:46:07.569Z,22.80
2023-06-14T09:48:43.961Z,23.00
2023-06-14T09:51:19.536Z,22.60
2023-06-14T09:53:52.854Z,22.90
2023-06-14T09:56:30.892Z,23.00
2023-06-14T09:59:08.052Z,22.90
2023-06-14T10:01:45.201Z,22.90
2023-06-14T10:04:24.309Z,22.80
2023-06-14T10:06:56.662Z,22.60
2023-06-14T10:09:29.356Z,22.10
2023-06-14T10:12:01.747Z,22.30
2023-06-14T10:14:33.296Z,22.40
2023-06-14T10:17:10.687Z,22.70
2023-06-14T10:19:49.160Z,22.90
2023-06-14T10:22:26.303Z,23.00
2023-06-14T10:24:57.252Z,23.20
2023-06-14T10:27:28.196Z,23.50
2023-06-14T10:30:11.468Z,23.40
2023-06-14T10:33:15.980Z,23.10
2023-06-14T10:35:49.656Z,23.10
2023-06-14T10:38:35.521Z,22.90
2023-06-14T10:41:07.639Z,23.00
2023-06-14T10:43:38.639Z,23.50
2023-06-14T10:46:24.226Z,23.20
2023-06-14T10:49:01.708Z,23.10
2023-06-14T10:51:47.518Z,23.30
2023-06-14T10:54:18.874Z,23.50
2023-06-14T10:56:51.175Z,23.40
2023-06-14T10:59:23.473Z,23.20
2023-06-14T11:02:06.855Z,23.00
2023-06-14T11:04:51.670Z,22.90
2023-06-14T11:07:40.589Z,23.20
2023-06-14T11:10:29.356Z,23.70
2023-06-14T11:13:00.541Z,23.60
2023-06-14T11:15:34.600Z,23.80
2023-06-14T11:18:06.305Z,23.40
2023-06-14T11:20:38.630Z,23.50
2023-06-14T11:23:12.146Z,24.00
2023-06-14T11:25:43.054Z,24.10
2023-06-14T11:28:13.940Z,23.90
2023-06-14T11:30:44.949Z,23.60
2023-06-14T11:33:20.442Z,23.50
2023-06-14T11:35:51.468Z,23.80
2023-06-14T11:38:25.060Z,23.70
2023-06-14T11:40:55.957Z,23.90
2023-06-14T11:43:27.577Z,23.90
2023-06-14T11:46:08.430Z,23.80
2023-06-14T11:48:46.795Z,23.80
2023-06-14T11:51:31.476Z,24.10
2023-06-14T11:54:13.370Z,24.10
2023-06-14T11:56:44.772Z,24.00
2023-06-14T11:59:17.758Z,24.20
2023-06-14T12:01:49.241Z,24.30
2023-06-14T12:04:27.966Z,24.10
2023-06-14T12:06:59.086Z,24.20
2023-06-14T12:09:33.851Z,24.00
2023-06-14T12:12:05.156Z,24.20
2023-06-14T12:14:37.132Z,24.30
2023-06-14T12:17:09.819Z,24.30
2023-06-14T12:19:46.750Z,24.50
2023-06-14T12:22:18.146Z,24.30
2023-06-14T12:24:51.895Z,24.60
2023-06-14T12:27:30.179Z,24.60
2023-06-14T12:30:06.085Z,24.40
2023-06-14T12:32:37.276Z,24.60
2023-06-14T12:35:09.237Z,24.80
2023-06-14T12:37:40.443Z,24.60
2023-06-14T12:40:15.690Z,24.60
2023-06-14T12:42:48.627Z,24.40
2023-06-14T12:45:19.971Z,24.50
2023-06-14T12:47:51.207Z,24.70
2023-06-14T12:50:24.673Z,24.20
2023-06-14T12:52:57.514Z,24.20
2023-06-14T12:55:31.261Z,24.40
2023-06-14T12:58:02.258Z,24.70
2023-06-14T13:00:33.816Z,24.50
2023-06-14T13:03:05.085Z,24.40
2023-06-14T13:05:36.169Z,24.50
2023-06-14T13:08:07.473Z,24.60
2023-06-14T13:10:41.098Z,24.90
2023-06-14T13:13:13.549Z,24.40
2023-06-14T13:15:45.166Z,24.40
2023-06-14T13:18:16.825Z,24.20
2023-06-14T13:20:49.227Z,24.40
2023-06-14T13:23:20.532Z,24.50
2023-06-14T13:25:54.392Z,24.50
2023-06-14T13:28:25.372Z,24.70
2023-06-14T13:30:56.954Z,24.70
2023-06-14T13:33:28.186Z,24.50
2023-06-14T13:35:59.460Z,24.40
2023-06-14T13:38:30.685Z,24.40
2023-06-14T13:41:04.271Z,24.50
2023-06-14T13:43:35.266Z,24.90
2023-06-14T13:46:06.277Z,24.70
2023-06-14T13:48:37.448Z,24.70
2023-06-14T13:51:08.465Z,24.70
2023-06-14T13:53:41.884Z,24.70
2023-06-14T13:56:15.423Z,24.60
2023-06-14T13:58:46.551Z,24.50
2023-06-14T14:01:19.433Z,24.60
2023-06-14T14:03:50.862Z,24.70
2023-06-14T14:06:22.441Z,24.60
2023-06-14T14:08:53.804Z,24.70
2023-06-14T14:11:27.518Z,24.50
2023-06-14T14:13:59.430Z,24.50
2023-06-14T14:16:31.682Z,24.10
2023-06-14T14:19:03.334Z,24.10
2023-06-14T14:21:34.468Z,24.00
2023-06-14T14:24:09.109Z,24.10
2023-06-14T14:26:42.894Z,24.20
2023-06-14T14:29:14.802Z,24.40
2023-06-14T14:31:45.871Z,24.30
2023-06-14T14:34:17.100Z,24.10
2023-06-14T14:36:48.064Z,24.00
2023-06-14T14:39:19.467Z,24.20
2023-06-14T14:41:53.959Z,24.30
2023-06-14T14:44:25.052Z,24.40
2023-06-14T14:46:55.987Z,24.50
2023-06-14T14:49:26.872Z,24.70
2023-06-14T14:52:05.316Z,24.70
2023-06-14T14:54:48.049Z,24.60
2023-06-14T14:57:21.548Z,24.80
2023-06-14T14:59:52.546Z,24.50
2023-06-14T15:02:24.854Z,24.50
2023-06-14T15:04:58.619Z,24.40
2023-06-14T15:07:29.617Z,24.40
2023-06-14T15:10:00.629Z,24.60
2023-06-14T15:12:34.116Z,24.70
2023-06-14T15:15:05.182Z,24.80
2023-06-14T15:17:36.178Z,24.60
2023-06-14T15:20:08.660Z,24.60
2023-06-14T15:22:39.712Z,24.60
2023-06-14T15:25:14.250Z,24.70
2023-06-14T15:27:48.005Z,24.70
2023-06-14T15:30:22.127Z,24.50
2023-06-14T15:32:53.369Z,24.50
2023-06-14T15:35:24.421Z,24.40
2023-06-14T15:37:55.582Z,24.40
2023-06-14T15:40:27.212Z,24.40
2023-06-14T15:43:00.807Z,24.40
2023-06-14T15:45:32.354Z,24.40
2023-06-14T15:48:03.737Z,24.50
2023-06-14T15:50:34.785Z,24.40
2023-06-14T15:53:08.409Z,24.60
2023-06-14T15:55:39.580Z,24.40
2023-06-14T15:58:13.090Z,24.20
2023-06-14T16:00:44.060Z,24.20
2023-06-14T16:03:17.978Z,23.90
2023-06-14T16:05:49.037Z,24.00
2023-06-14T16:08:35.590Z,24.10
2023-06-14T16:11:11.093Z,24.20
2023-06-14T16:13:46.097Z,24.30
2023-06-14T16:16:17.174Z,24.30
2023-06-14T16:18:48.132Z,24.20
2023-06-14T16:21:19.172Z,24.00
2023-06-14T16:23:50.242Z,24.00
2023-06-14T16:26:21.491Z,24.00
2023-06-14T16:28:55.062Z,23.90
2023-06-14T16:31:26.655Z,23.90
2023-06-14T16:33:58.060Z,24.00
2023-06-14T16:36:29.165Z,24.00
2023-06-14T16:39:00.253Z,24.30
2023-06-14T16:41:31.170Z,24.20
2023-06-14T16:44:06.218Z,24.10
2023-06-14T16:46:38.765Z,23.90
2023-06-14T16:49:09.854Z,23.80
2023-06-14T16:51:40.782Z,23.90
2023-06-14T16:54:12.089Z,23.70
2023-06-14T16:56:43.126Z,23.60
2023-06-14T16:59:16.987Z,23.60
2023-06-14T17:01:48.006Z,23.60
2023-06-14T17:04:19.065Z,23.70
2023-06-14T17:06:50.076Z,23.70
2023-06-14T17:09:21.010Z,23.90
2023-06-14T17:11:52.291Z,23.80
2023-06-14T17:14:26.896Z,23.70
2023-06-14T17:16:58.344Z,23.70
2023-06-14T17:19:30.228Z,23.70
2023-06-14T17:22:01.554Z,23.70
2023-06-14T17:24:32.540Z,24.00
2023-06-14T17:27:03.524Z,23.60
2023-06-14T17:29:37.038Z,23.70
2023-06-14T17:32:09.327Z,23.80
2023-06-14T17:34:40.614Z,23.80
2023-06-14T17:37:14.132Z,23.80
2023-06-14T17:39:45.360Z,23.70
2023-06-14T17:42:16.260Z,23.70
2023-06-14T17:44:52.254Z,23.60
2023-06-14T17:47:35.696Z,23.70
2023-06-14T17:50:08.627Z,23.60
2023-06-14T17:52:41.176Z,23.60
2023-06-14T17:55:13.190Z,23.50
2023-06-14T17:57:51.901Z,23.60
2023-06-14T18:00:27.503Z,23.50
2023-06-14T18:03:05.299Z,23.40
2023-06-14T18:05:38.904Z,23.30
2023-06-14T18:08:16.270Z,23.30
2023-06-14T18:10:47.520Z,23.20
2023-06-14T18:13:19.008Z,23.20
2023-06-14T18:15:52.662Z,23.10
2023-06-14T18:18:26.050Z,23.00
2023-06-14T18:20:57.101Z,23.00
2023-06-14T18:23:27.996Z,23.00
2023-06-14T18:25:58.989Z,23.00
2023-06-14T18:28:29.875Z,23.00
2023-06-14T18:31:03.575Z,23.00
2023-06-14T18:33:34.829Z,23.30
2023-06-14T18:36:05.886Z,22.80
2023-06-14T18:38:37.471Z,22.80
2023-06-14T18:41:08.727Z,22.90
2023-06-14T18:43:39.784Z,22.80
2023-06-14T18:46:13.804Z,22.80
2023-06-14T18:48:45.029Z,22.70
2023-06-14T18:51:16.028Z,22.70
2023-06-14T18:53:47.014Z,22.70
2023-06-14T18:56:18.130Z,22.70
2023-06-14T18:58:49.022Z,22.60
2023-06-14T19:01:22.673Z,22.70
2023-06-14T19:03:53.684Z,22.60
2023-06-14T19:06:25.570Z,22.60
2023-06-14T19:08:56.625Z,22.50
2023-06-14T19:11:27.553Z,22.70
2023-06-14T19:13:58.532Z,22.50
2023-06-14T19:16:32.196Z,22.50
2023-06-14T19:19:03.117Z,22.40
2023-06-14T19:21:34.209Z,22.70
2023-06-14T19:24:08.554Z,22.40
2023-06-14T19:26:39.725Z,22.60
2023-06-14T19:29:10.672Z,22.40
2023-06-14T19:31:44.630Z,22.30
2023-06-14T19:34:15.748Z,22.20
2023-06-14T19:36:46.720Z,22.20
2023-06-14T19:39:18.468Z,22.20
2023-06-14T19:41:50.931Z,22.30
2023-06-14T19:44:21.883Z,22.20
2023-06-14T19:46:55.544Z,22.00
2023-06-14T19:49:26.506Z,21.90
2023-06-14T19:51:57.426Z,21.90
2023-06-14T19:54:28.437Z,21.90
2023-06-14T19:56:59.310Z,21.90
2023-06-14T19:59:32.330Z,21.80
2023-06-14T20:02:06.034Z,21.80
2023-06-14T20:04:37.455Z,21.80
2023-06-14T20:07:09.489Z,21.70
2023-06-14T20:09:40.601Z,21.70
2023-06-14T20:12:12.495Z,21.60
2023-06-14T20:14:43.385Z,21.50
2023-06-14T20:17:17.126Z,21.40
2023-06-14T20:19:50.003Z,21.30
2023-06-14T20:22:21.017Z,21.20
2023-06-14T20:24:52.378Z,21.10
2023-06-14T20:27:23.298Z,21.00
2023-06-14T20:29:54.231Z,20.90
2023-06-14T20:32:28.256Z,20.80
2023-06-14T20:34:59.630Z,20.70
2023-06-14T20:37:30.623Z,20.60
2023-06-14T20:40:03.805Z,20.60
2023-06-14T20:42:37.922Z,20.40
2023-06-14T20:45:10.044Z,20.40
2023-06-14T20:47:44.326Z,20.30
2023-06-14T20:50:17.474Z,20.30
2023-06-14T20:52:49.746Z,20.20
2023-06-14T20:55:21.007Z,20.10
2023-06-14T20:57:52.112Z,20.00
2023-06-14T21:00:23.380Z,20.00
2023-06-14T21:02:58.092Z,19.90
2023-06-14T21:05:30.750Z,19.80
2023-06-14T21:08:02.218Z,19.80
2023-06-14T21:10:33.192Z,19.70
2023-06-14T21:13:04.203Z,19.60
2023-06-14T21:15:35.316Z,19.60
2023-06-14T21:18:10.896Z,19.80
2023-06-14T21:20:42.018Z,19.50
2023-06-14T21:23:14.531Z,19.40
2023-06-14T21:25:45.428Z,19.40
2023-06-14T21:28:19.177Z,19.40
2023-06-14T21:30:50.336Z,19.30
2023-06-14T21:33:23.899Z,19.30
2023-06-14T21:35:54.963Z,19.20
2023-06-14T21:38:25.909Z,19.20
2023-06-14T21:40:57.215Z,19.10
2023-06-14T21:43:28.176Z,19.00
2023-06-14T21:45:59.156Z,18.90
2023-06-14T21:48:32.644Z,18.90
2023-06-14T21:51:03.685Z,19.00
2023-06-14T21:53:35.016Z,18.90
2023-06-14T21:56:06.299Z,18.80
2023-06-14T21:58:37.302Z,18.80
2023-06-14T22:01:08.382Z,18.80
2023-06-14T22:03:42.287Z,18.70
2023-06-14T22:06:13.590Z,18.60
2023-06-14T22:08:45.893Z,18.60
2023-06-14T22:11:16.909Z,18.50
2023-06-14T22:13:49.734Z,18.40
2023-06-14T22:16:22.072Z,18.40
2023-06-14T22:18:57.849Z,18.40
2023-06-14T22:21:29.862Z,18.40
2023-06-14T22:24:00.884Z,18.60
2023-06-14T22:26:40.568Z,18.60
2023-06-14T22:29:11.912Z,18.20
2023-06-14T22:31:43.103Z,18.20
2023-06-14T22:34:16.928Z,18.20
2023-06-14T22:36:49.064Z,18.20
2023-06-14T22:39:20.182Z,18.10
2023-06-14T22:41:51.441Z,18.10
2023-06-14T22:44:23.087Z,18.00
2023-06-14T22:46:56.856Z,18.00
2023-06-14T22:49:32.209Z,17.90
2023-06-14T22:52:05.904Z,17.90
2023-06-14T22:54:37.168Z,17.80
2023-06-14T22:57:17.582Z,17.80
2023-06-14T22:59:49.384Z,17.70
2023-06-14T23:02:20.897Z,17.60
2023-06-14T23:04:54.668Z,17.60
2023-06-14T23:07:28.470Z,17.60
2023-06-14T23:09:59.842Z,17.50
2023-06-14T23:12:30.993Z,17.50
2023-06-14T23:15:03.358Z,17.70
2023-06-14T23:17:34.538Z,17.40
2023-06-14T23:20:11.502Z,17.40
2023-06-14T23:22:44.685Z,17.40
2023-06-14T23:25:15.772Z,17.30
2023-06-14T23:27:47.094Z,17.20
2023-06-14T23:30:18.753Z,17.20
2023-06-14T23:32:50.941Z,17.20
2023-06-14T23:35:27.403Z,17.10
2023-06-14T23:37:59.107Z,17.10
2023-06-14T23:40:31.694Z,17.10
2023-06-14T23:43:03.771Z,17.00
2023-06-14T23:45:35.105Z,17.00
2023-06-14T23:48:06.711Z,16.90
2023-06-14T23:50:40.318Z,16.90
2023-06-14T23:53:11.325Z,16.90
2023-06-14T23:55:42.571Z,16.80
2023-06-14T23:58:13.457Z,16.80
